createdAt,value
2018-08-27T00:00:31.820Z,97715.01
2018-08-27T00:03:01.052Z,97718.73
2018-08-27T00:05:30.298Z,97711.23
2018-08-27T00:07:59.512Z,97710.69
2018-08-27T00:10:28.760Z,97716.54
2018-08-27T00:12:58.052Z,97721.84
2018-08-27T00:15:27.284Z,97720.99
2018-08-27T00:17:56.544Z,97713.52
2018-08-27T00:20:25.762Z,97716.48
2018-08-27T00:22:55.014Z,97717.47
2018-08-27T00:25:24.277Z,97716.39
2018-08-27T00:27:53.510Z,97714.30
2018-08-27T00:30:22.761Z,97712.70
2018-08-27T00:32:52.017Z,97716.16
2018-08-27T00:35:21.270Z,97722.33
2018-08-27T00:37:50.633Z,97728.48
2018-08-27T00:40:19.910Z,97723.39
2018-08-27T00:42:49.206Z,97724.20
2018-08-27T00:45:18.521Z,97718.05
2018-08-27T00:47:47.873Z,97716.78
2018-08-27T00:50:17.138Z,97706.09
2018-08-27T00:52:46.389Z,97711.70
2018-08-27T00:55:15.613Z,97709.29
2018-08-27T00:57:44.855Z,97710.91
2018-08-27T01:00:14.137Z,97709.30
2018-08-27T01:02:43.389Z,97711.96
2018-08-27T01:05:12.634Z,97703.95
2018-08-27T01:07:41.897Z,97713.03
2018-08-27T01:10:11.115Z,97704.76
2018-08-27T01:12:40.477Z,97705.06
2018-08-27T01:15:10.049Z,97704.25
2018-08-27T01:17:39.281Z,97710.39
2018-08-27T01:20:08.521Z,97702.36
2018-08-27T01:22:37.853Z,97701.30
2018-08-27T01:25:07.477Z,97692.47
2018-08-27T01:27:36.993Z,97701.83
2018-08-27T01:30:06.269Z,97696.73
2018-08-27T01:32:35.510Z,97698.61
2018-08-27T01:35:04.761Z,97696.21
2018-08-27T01:37:33.989Z,97694.05
2018-08-27T01:40:03.257Z,97693.02
2018-08-27T01:42:32.524Z,97697.03
2018-08-27T01:45:01.797Z,97693.28
2018-08-27T01:47:31.062Z,97686.30
2018-08-27T01:50:00.298Z,97690.90
2018-08-27T01:52:29.545Z,97685.55
2018-08-27T01:54:58.829Z,97693.02
2018-08-27T01:57:28.126Z,97690.06
2018-08-27T01:59:57.410Z,97682.36
2018-08-27T02:02:26.640Z,97686.66
2018-08-27T02:04:55.890Z,97679.43
2018-08-27T02:07:25.130Z,97672.74
2018-08-27T02:09:54.390Z,97676.20
2018-08-27T02:12:23.627Z,97674.61
2018-08-27T02:14:52.919Z,97676.22
2018-08-27T02:17:22.231Z,97668.18
2018-08-27T02:19:51.549Z,97670.33
2018-08-27T02:22:20.809Z,97667.39
2018-08-27T02:24:50.096Z,97660.44
2018-08-27T02:27:19.418Z,97655.34
2018-08-27T02:29:48.723Z,97655.64
2018-08-27T02:32:18.086Z,97653.73
2018-08-27T02:34:47.393Z,97649.73
2018-08-27T02:37:16.639Z,97654.56
2018-08-27T02:39:45.909Z,97653.50
2018-08-27T02:42:15.174Z,97653.48
2018-08-27T02:44:44.403Z,97651.89
2018-08-27T02:47:13.638Z,97646.22
2018-08-27T02:49:42.865Z,97646.17
2018-08-27T02:52:12.089Z,97637.07
2018-08-27T02:54:41.417Z,97642.95
2018-08-27T02:57:10.759Z,97639.70
2018-08-27T02:59:40.010Z,97640.70
2018-08-27T03:02:12.110Z,97639.38
2018-08-27T03:04:41.337Z,97634.22
2018-08-27T03:07:11.344Z,97635.86
2018-08-27T03:09:40.562Z,97637.45
2018-08-27T03:12:11.825Z,97631.56
2018-08-27T03:14:41.047Z,97631.06
2018-08-27T03:17:10.287Z,97636.70
2018-08-27T03:19:39.550Z,97638.33
2018-08-27T03:22:08.750Z,97641.02
2018-08-27T03:24:38.088Z,97638.91
2018-08-27T03:27:07.381Z,97638.61
2018-08-27T03:29:36.727Z,97639.45
2018-08-27T03:32:07.049Z,97631.13
2018-08-27T03:34:36.348Z,97628.46
2018-08-27T03:37:05.901Z,97630.32
2018-08-27T03:39:35.101Z,97625.22
2018-08-27T03:42:04.330Z,97628.09
2018-08-27T03:44:33.569Z,97630.75
2018-08-27T03:47:02.813Z,97626.16
2018-08-27T03:49:32.103Z,97629.36
2018-08-27T03:52:01.371Z,97628.55
2018-08-27T03:54:30.616Z,97630.20
2018-08-27T03:56:59.859Z,97631.19
2018-08-27T03:59:29.089Z,97618.88
2018-08-27T04:01:58.419Z,97617.78
2018-08-27T04:04:27.673Z,97619.61
2018-08-27T04:06:57.099Z,97622.23
2018-08-27T04:09:26.336Z,97619.05
2018-08-27T04:11:55.595Z,97619.05
2018-08-27T04:14:24.853Z,97620.30
2018-08-27T04:16:54.203Z,97621.44
2018-08-27T04:19:23.502Z,97625.94
2018-08-27T04:21:52.763Z,97630.23
2018-08-27T04:24:22.040Z,97641.16
2018-08-27T04:26:51.329Z,97642.03
2018-08-27T04:29:20.646Z,97646.82
2018-08-27T04:31:49.898Z,97646.29
2018-08-27T04:34:19.282Z,97652.23
2018-08-27T04:36:48.512Z,97646.36
2018-08-27T04:39:17.768Z,97644.52
2018-08-27T04:41:47.037Z,97635.94
2018-08-27T04:44:16.310Z,97636.42
2018-08-27T04:46:45.555Z,97635.13
2018-08-27T04:49:14.799Z,97625.48
2018-08-27T04:51:44.086Z,97630.04
2018-08-27T04:54:13.362Z,97639.98
2018-08-27T04:56:43.690Z,97636.77
2018-08-27T04:59:13.786Z,97634.84
2018-08-27T05:01:43.044Z,97630.20
2018-08-27T05:04:12.307Z,97636.34
2018-08-27T05:06:41.569Z,97644.95
2018-08-27T05:09:11.758Z,97642.27
2018-08-27T05:11:41.067Z,97644.41
2018-08-27T05:14:11.523Z,97648.67
2018-08-27T05:16:41.110Z,97648.83
2018-08-27T05:19:10.582Z,97652.79
2018-08-27T05:21:39.778Z,97644.50
2018-08-27T05:24:09.021Z,97658.72
2018-08-27T05:26:38.335Z,97653.05
2018-08-27T05:29:07.669Z,97649.91
2018-08-27T05:31:36.959Z,97657.34
2018-08-27T05:34:06.418Z,97645.01
2018-08-27T05:36:35.653Z,97647.95
2018-08-27T05:39:07.332Z,97644.56
2018-08-27T05:41:36.741Z,97649.63
2018-08-27T05:44:06.038Z,97645.72
2018-08-27T05:46:35.349Z,97648.98
2018-08-27T05:49:04.758Z,97647.48
2018-08-27T05:51:34.175Z,97651.47
2018-08-27T05:54:03.567Z,97646.14
2018-08-27T05:56:32.839Z,97646.91
2018-08-27T05:59:02.128Z,97653.08
2018-08-27T06:01:31.507Z,97656.38
2018-08-27T06:04:00.775Z,97651.82
2018-08-27T06:06:30.025Z,97654.23
2018-08-27T06:09:08.605Z,97659.21
2018-08-27T06:11:38.850Z,97659.17
2018-08-27T06:14:08.190Z,97660.84
2018-08-27T06:16:37.545Z,97661.41
2018-08-27T06:19:07.078Z,97663.28
2018-08-27T06:21:36.338Z,97665.73
2018-08-27T06:24:05.683Z,97659.23
2018-08-27T06:26:35.005Z,97655.25
2018-08-27T06:29:04.355Z,97657.33
2018-08-27T06:31:33.648Z,97662.42
2018-08-27T06:34:02.930Z,97659.62
2018-08-27T06:36:32.309Z,97663.34
2018-08-27T06:39:01.562Z,97656.20
2018-08-27T06:41:30.840Z,97652.87
2018-08-27T06:44:00.186Z,97647.50
2018-08-27T06:46:29.453Z,97652.34
2018-08-27T06:48:58.723Z,97657.28
2018-08-27T06:51:28.010Z,97661.23
2018-08-27T06:53:57.359Z,97654.60
2018-08-27T06:56:26.614Z,97663.73
2018-08-27T06:58:55.858Z,97663.09
2018-08-27T07:01:25.136Z,97659.63
2018-08-27T07:03:54.367Z,97658.70
2018-08-27T07:06:23.664Z,97668.52
2018-08-27T07:08:52.926Z,97659.64
2018-08-27T07:11:22.235Z,97659.59
2018-08-27T07:13:51.481Z,97658.12
2018-08-27T07:16:20.764Z,97661.08
2018-08-27T07:18:49.798Z,97665.86
2018-08-27T07:21:19.117Z,97669.55
2018-08-27T07:23:48.363Z,97667.06
2018-08-27T07:26:17.633Z,97665.35
2018-08-27T07:28:46.911Z,97671.45
2018-08-27T07:31:16.230Z,97673.05
2018-08-27T07:33:45.525Z,97674.48
2018-08-27T07:36:14.957Z,97672.16
2018-08-27T07:38:44.144Z,97675.41
2018-08-27T07:41:13.470Z,97675.80
2018-08-27T07:43:42.722Z,97683.61
2018-08-27T07:46:12.047Z,97690.44
2018-08-27T07:48:41.289Z,97688.61
2018-08-27T07:51:10.674Z,97695.39
2018-08-27T07:53:40.147Z,97694.59
2018-08-27T07:56:09.410Z,97697.58
2018-08-27T07:58:38.712Z,97695.58
2018-08-27T08:01:08.002Z,97705.92
2018-08-27T08:03:37.301Z,97703.82
2018-08-27T08:06:06.671Z,97713.67
2018-08-27T08:08:35.941Z,97711.95
2018-08-27T08:11:05.188Z,97702.44
2018-08-27T08:13:34.467Z,97704.22
2018-08-27T08:16:03.825Z,97706.34
2018-08-27T08:18:33.142Z,97713.34
2018-08-27T08:21:02.492Z,97713.27
2018-08-27T08:23:31.863Z,97711.14
2018-08-27T08:26:01.266Z,97708.30
2018-08-27T08:28:30.559Z,97702.11
2018-08-27T08:30:59.753Z,97696.02
2018-08-27T08:33:28.990Z,97691.80
2018-08-27T08:35:58.201Z,97690.99
2018-08-27T08:38:27.475Z,97699.31
2018-08-27T08:40:56.760Z,97700.50
2018-08-27T08:43:26.042Z,97706.87
2018-08-27T08:45:55.306Z,97703.59
2018-08-27T08:48:24.575Z,97704.67
2018-08-27T08:50:53.843Z,97702.06
2018-08-27T08:53:23.222Z,97704.04
2018-08-27T08:55:52.397Z,97702.89
2018-08-27T08:58:21.695Z,97711.38
2018-08-27T09:00:50.962Z,97712.31
2018-08-27T09:03:20.301Z,97714.99
2018-08-27T09:05:49.566Z,97718.38
2018-08-27T09:08:19.024Z,97725.56
2018-08-27T09:10:48.137Z,97740.52
2018-08-27T09:13:17.425Z,97746.38
2018-08-27T09:15:46.783Z,97736.52
2018-08-27T09:18:18.115Z,97739.44
2018-08-27T09:20:47.429Z,97744.64
2018-08-27T09:23:16.747Z,97748.27
2018-08-27T09:25:46.070Z,97738.85
2018-08-27T09:28:15.335Z,97732.08
2018-08-27T09:30:44.617Z,97724.86
2018-08-27T09:33:13.983Z,97717.98
2018-08-27T09:35:43.281Z,97711.00
2018-08-27T09:38:12.598Z,97709.39
2018-08-27T09:40:41.838Z,97720.84
2018-08-27T09:43:11.103Z,97718.41
2018-08-27T09:45:40.374Z,97716.53
2018-08-27T09:48:09.657Z,97717.36
2018-08-27T09:50:38.971Z,97713.67
2018-08-27T09:53:09.030Z,97712.20
2018-08-27T09:55:38.322Z,97711.85
2018-08-27T09:58:07.614Z,97707.97
2018-08-27T10:00:42.181Z,97706.52
2018-08-27T10:03:11.503Z,97707.07
2018-08-27T10:05:40.796Z,97707.88
2018-08-27T10:08:10.087Z,97706.11
2018-08-27T10:10:39.491Z,97712.36
2018-08-27T10:13:08.892Z,97715.08
2018-08-27T10:15:38.195Z,97710.84
2018-08-27T10:18:07.482Z,97709.11
2018-08-27T10:20:36.830Z,97711.56
2018-08-27T10:23:06.219Z,97718.67
2018-08-27T10:25:35.725Z,97714.94
2018-08-27T10:28:05.187Z,97721.56
2018-08-27T10:30:34.442Z,97722.47
2018-08-27T10:33:04.350Z,97727.09
2018-08-27T10:35:33.697Z,97716.28
2018-08-27T10:38:02.909Z,97720.82
2018-08-27T10:40:32.650Z,97715.97
2018-08-27T10:43:01.897Z,97717.33
2018-08-27T10:45:31.156Z,97713.51
2018-08-27T10:48:00.406Z,97711.05
2018-08-27T10:50:29.700Z,97710.47
2018-08-27T10:52:58.935Z,97709.20
2018-08-27T10:55:28.170Z,97710.12
2018-08-27T10:57:57.406Z,97705.50
2018-08-27T11:00:26.659Z,97706.80
2018-08-27T11:02:55.892Z,97703.45
2018-08-27T11:05:25.147Z,97701.58
2018-08-27T11:07:54.600Z,97698.81
2018-08-27T11:10:23.887Z,97697.08
2018-08-27T11:12:53.178Z,97696.39
2018-08-27T11:15:22.541Z,97703.34
2018-08-27T11:17:51.845Z,97695.70
2018-08-27T11:20:21.240Z,97700.79
2018-08-27T11:22:50.410Z,97697.63
2018-08-27T11:25:19.682Z,97692.16
2018-08-27T11:27:48.971Z,97696.58
2018-08-27T11:30:18.312Z,97691.64
2018-08-27T11:32:47.624Z,97696.17
2018-08-27T11:35:16.878Z,97695.01
2018-08-27T11:37:46.123Z,97692.31
2018-08-27T11:40:15.396Z,97691.97
2018-08-27T11:42:44.620Z,97696.05
2018-08-27T11:45:13.853Z,97702.45
2018-08-27T11:47:43.152Z,97707.52
2018-08-27T11:50:12.539Z,97713.47
2018-08-27T11:52:41.718Z,97719.37
2018-08-27T11:55:11.769Z,97721.79
2018-08-27T11:57:40.850Z,97715.77
2018-08-27T12:00:15.544Z,97717.54
2018-08-27T12:02:44.959Z,97721.67
2018-08-27T12:05:14.250Z,97720.19
2018-08-27T12:07:43.619Z,97731.39
2018-08-27T12:10:12.902Z,97726.45
2018-08-27T12:12:42.158Z,97724.77
2018-08-27T12:15:11.427Z,97723.79
2018-08-27T12:17:42.717Z,97713.73
2018-08-27T12:20:11.977Z,97719.52
2018-08-27T12:22:41.231Z,97711.07
2018-08-27T12:25:10.482Z,97707.39
2018-08-27T12:27:39.735Z,97712.64
2018-08-27T12:30:08.996Z,97717.31
2018-08-27T12:32:38.253Z,97717.14
2018-08-27T12:35:07.832Z,97714.09
2018-08-27T12:37:37.160Z,97716.84
2018-08-27T12:40:06.714Z,97711.64
2018-08-27T12:42:36.087Z,97717.16
2018-08-27T12:45:06.311Z,97710.27
2018-08-27T12:47:35.715Z,97703.92
2018-08-27T12:50:05.082Z,97707.48
2018-08-27T12:52:34.389Z,97713.70
2018-08-27T12:55:03.682Z,97712.75
2018-08-27T12:57:32.948Z,97717.45
2018-08-27T13:00:02.392Z,97714.61
2018-08-27T13:02:31.783Z,97716.26
2018-08-27T13:05:01.197Z,97705.63
2018-08-27T13:07:30.619Z,97713.50
2018-08-27T13:09:59.590Z,97702.19
2018-08-27T13:12:28.906Z,97709.75
2018-08-27T13:14:58.176Z,97711.30
2018-08-27T13:17:27.431Z,97710.75
2018-08-27T13:19:56.708Z,97707.36
2018-08-27T13:22:30.369Z,97708.13
2018-08-27T13:25:01.444Z,97706.42
2018-08-27T13:27:31.414Z,97704.14
2018-08-27T13:30:00.997Z,97702.62
2018-08-27T13:32:30.229Z,97701.61
2018-08-27T13:34:59.497Z,97705.58
2018-08-27T13:37:28.838Z,97708.65
2018-08-27T13:39:58.153Z,97712.97
2018-08-27T13:42:27.368Z,97707.72
2018-08-27T13:44:56.698Z,97708.84
2018-08-27T13:47:25.951Z,97708.25
2018-08-27T13:49:55.211Z,97710.16
2018-08-27T13:52:24.501Z,97705.99
2018-08-27T13:54:53.746Z,97713.78
2018-08-27T13:57:23.010Z,97709.27
2018-08-27T13:59:52.271Z,97706.09
2018-08-27T14:02:21.553Z,97709.55
2018-08-27T14:04:50.845Z,97712.34
2018-08-27T14:07:20.155Z,97714.43
2018-08-27T14:09:49.431Z,97710.62
2018-08-27T14:12:18.706Z,97714.22
2018-08-27T14:14:48.052Z,97711.06
2018-08-27T14:17:17.371Z,97711.46
2018-08-27T14:19:46.803Z,97710.20
2018-08-27T14:22:16.084Z,97713.45
2018-08-27T14:24:45.350Z,97710.53
2018-08-27T14:27:14.522Z,97708.09
2018-08-27T14:29:43.796Z,97710.77
2018-08-27T14:32:13.098Z,97708.11
2018-08-27T14:34:42.450Z,97710.50
2018-08-27T14:37:11.780Z,97703.20
2018-08-27T14:39:41.074Z,97701.80
2018-08-27T14:42:10.360Z,97698.61
2018-08-27T14:44:39.717Z,97700.64
2018-08-27T14:47:09.042Z,97701.41
2018-08-27T14:49:38.447Z,97701.61
2018-08-27T14:52:08.153Z,97700.61
2018-08-27T14:54:37.526Z,97703.80
2018-08-27T14:57:06.767Z,97709.27
2018-08-27T14:59:36.207Z,97707.61
2018-08-27T15:02:06.155Z,97712.64
2018-08-27T15:04:35.542Z,97712.37
2018-08-27T15:07:04.780Z,97715.81
2018-08-27T15:09:34.160Z,97714.02
2018-08-27T15:12:03.534Z,97713.00
2018-08-27T15:14:32.937Z,97716.02
2018-08-27T15:17:02.409Z,97710.26
2018-08-27T15:19:31.578Z,97716.36
2018-08-27T15:22:00.839Z,97716.53
2018-08-27T15:24:30.788Z,97715.37
2018-08-27T15:27:00.067Z,97714.46
2018-08-27T15:29:29.410Z,97716.97
2018-08-27T15:31:58.722Z,97717.42
2018-08-27T15:34:27.798Z,97715.82
2018-08-27T15:36:57.050Z,97718.81
2018-08-27T15:39:26.321Z,97717.69
2018-08-27T15:41:55.638Z,97718.57
2018-08-27T15:44:25.074Z,97719.72
2018-08-27T15:46:54.287Z,97725.49
2018-08-27T15:49:23.564Z,97721.26
2018-08-27T15:51:52.823Z,97729.23
2018-08-27T15:54:22.086Z,97730.23
2018-08-27T15:56:51.366Z,97732.34
2018-08-27T15:59:20.674Z,97737.46
2018-08-27T16:01:49.960Z,97739.38
2018-08-27T16:04:22.747Z,97743.41
2018-08-27T16:06:51.952Z,97744.27
2018-08-27T16:09:21.196Z,97744.52
2018-08-27T16:11:50.526Z,97741.85
2018-08-27T16:14:19.825Z,97745.92
2018-08-27T16:16:49.101Z,97742.73
2018-08-27T16:19:18.378Z,97742.15
2018-08-27T16:21:47.662Z,97751.28
2018-08-27T16:24:16.946Z,97745.55
2018-08-27T16:26:46.209Z,97739.27
2018-08-27T16:29:15.429Z,97740.38
2018-08-27T16:31:44.637Z,97742.30
2018-08-27T16:34:13.869Z,97750.97
2018-08-27T16:36:43.169Z,97753.14
2018-08-27T16:39:12.501Z,97754.75
2018-08-27T16:41:41.502Z,97762.33
2018-08-27T16:44:10.778Z,97757.38
2018-08-27T16:46:40.042Z,97760.13
2018-08-27T16:49:09.066Z,97749.31
2018-08-27T16:51:38.402Z,97758.03
2018-08-27T16:54:07.775Z,97756.95
2018-08-27T16:56:37.127Z,97765.32
2018-08-27T16:59:06.493Z,97774.02
2018-08-27T17:01:35.900Z,97773.61
2018-08-27T17:04:05.198Z,97780.50
2018-08-27T17:06:34.307Z,97779.20
2018-08-27T17:09:05.257Z,97778.87
2018-08-27T17:11:34.487Z,97781.72
2018-08-27T17:14:03.847Z,97784.20
2018-08-27T17:16:33.144Z,97781.58
2018-08-27T17:19:02.401Z,97790.83
2018-08-27T17:21:31.664Z,97791.17
2018-08-27T17:24:00.930Z,97797.77
2018-08-27T17:26:30.277Z,97796.66
2018-08-27T17:28:59.596Z,97798.97
2018-08-27T17:31:28.875Z,97816.38
2018-08-27T17:33:58.138Z,97811.11
2018-08-27T17:36:27.399Z,97812.95
2018-08-27T17:38:56.653Z,97818.53
2018-08-27T17:41:25.916Z,97817.73
2018-08-27T17:43:54.939Z,97821.38
2018-08-27T17:46:24.209Z,97823.71
2018-08-27T17:48:53.466Z,97830.22
2018-08-27T17:51:22.829Z,97827.95
2018-08-27T17:53:52.134Z,97829.70
2018-08-27T17:56:21.399Z,97829.86
2018-08-27T17:58:50.790Z,97831.05
2018-08-27T18:01:20.084Z,97830.69
2018-08-27T18:03:49.332Z,97833.48
2018-08-27T18:06:18.852Z,97834.50
2018-08-27T18:08:48.113Z,97841.02
2018-08-27T18:11:17.618Z,97840.30
2018-08-27T18:13:46.946Z,97842.79
2018-08-27T18:16:16.213Z,97851.97
2018-08-27T18:18:45.488Z,97855.95
2018-08-27T18:21:15.778Z,97854.64
2018-08-27T18:23:45.045Z,97869.02
2018-08-27T18:26:14.378Z,97868.59
2018-08-27T18:28:43.666Z,97871.94
2018-08-27T18:31:12.946Z,97872.95
2018-08-27T18:33:42.211Z,97873.77
2018-08-27T18:36:11.462Z,97878.44
2018-08-27T18:38:40.711Z,97879.20
2018-08-27T18:41:09.994Z,97882.83
2018-08-27T18:43:39.294Z,97887.19
2018-08-27T18:46:08.842Z,97893.67
2018-08-27T18:48:38.237Z,97899.56
2018-08-27T18:51:07.478Z,97903.11
2018-08-27T18:53:36.796Z,97897.59
2018-08-27T18:56:06.111Z,97911.16
2018-08-27T18:58:35.500Z,97917.73
2018-08-27T19:01:04.814Z,97918.10
2018-08-27T19:03:34.157Z,97919.78
2018-08-27T19:06:03.496Z,97919.75
2018-08-27T19:08:32.885Z,97925.26
2018-08-27T19:11:02.197Z,97921.83
2018-08-27T19:13:31.442Z,97924.77
2018-08-27T19:16:00.774Z,97929.35
2018-08-27T19:18:30.111Z,97935.47
2018-08-27T19:20:59.383Z,97936.59
2018-08-27T19:23:28.675Z,97933.98
2018-08-27T19:25:57.922Z,97951.05
2018-08-27T19:28:27.165Z,97951.31
2018-08-27T19:30:56.409Z,97947.44
2018-08-27T19:33:25.717Z,97947.12
2018-08-27T19:35:55.137Z,97945.70
2018-08-27T19:38:24.303Z,97937.02
2018-08-27T19:40:53.629Z,97944.85
2018-08-27T19:43:22.954Z,97943.99
2018-08-27T19:45:52.282Z,97946.12
2018-08-27T19:48:21.474Z,97947.41
2018-08-27T19:50:50.481Z,97945.88
2018-08-27T19:53:19.706Z,97956.39
2018-08-27T19:55:48.937Z,97952.61
2018-08-27T19:58:18.205Z,97952.58
2018-08-27T20:00:47.422Z,97963.44
2018-08-27T20:03:16.717Z,97965.67
2018-08-27T20:05:45.978Z,97965.62
2018-08-27T20:08:15.260Z,97958.19
2018-08-27T20:10:44.558Z,97963.59
2018-08-27T20:13:14.553Z,97960.50
2018-08-27T20:15:43.870Z,97962.00
2018-08-27T20:18:13.171Z,97964.04
2018-08-27T20:20:42.452Z,97965.53
2018-08-27T20:23:11.680Z,97965.35
2018-08-27T20:25:40.923Z,97961.95
2018-08-27T20:28:10.170Z,97957.42
2018-08-27T20:30:39.474Z,97958.84
2018-08-27T20:33:08.858Z,97961.84
2018-08-27T20:35:38.126Z,97956.77
2018-08-27T20:38:07.437Z,97961.08
2018-08-27T20:40:36.761Z,97947.48
2018-08-27T20:43:06.115Z,97948.59
2018-08-27T20:45:35.836Z,97953.20
2018-08-27T20:48:05.311Z,97967.42
2018-08-27T20:50:34.596Z,97972.19
2018-08-27T20:53:03.951Z,97976.27
2018-08-27T20:55:33.295Z,97979.36
2018-08-27T20:58:02.667Z,97977.81
2018-08-27T21:00:31.923Z,97986.14
2018-08-27T21:03:01.212Z,97989.97
2018-08-27T21:05:30.423Z,97995.20
2018-08-27T21:07:59.741Z,97994.66
2018-08-27T21:10:29.115Z,97986.11
2018-08-27T21:12:58.357Z,97986.94
2018-08-27T21:15:27.618Z,97983.17
2018-08-27T21:17:56.854Z,97985.30
2018-08-27T21:20:26.204Z,97986.64
2018-08-27T21:22:55.482Z,97990.91
2018-08-27T21:25:24.678Z,97991.48
2018-08-27T21:27:54.014Z,98003.30
2018-08-27T21:30:23.327Z,97994.16
2018-08-27T21:32:52.660Z,97990.98
2018-08-27T21:35:21.971Z,97992.89
2018-08-27T21:37:51.231Z,97995.36
2018-08-27T21:40:20.570Z,98005.06
2018-08-27T21:42:49.814Z,98002.66
2018-08-27T21:45:19.716Z,98006.39
2018-08-27T21:47:49.023Z,98008.55
2018-08-27T21:50:18.143Z,98004.71
2018-08-27T21:52:47.446Z,98010.06
2018-08-27T21:55:16.755Z,98011.91
2018-08-27T21:57:46.083Z,98015.40
2018-08-27T22:00:15.351Z,98017.20
2018-08-27T22:02:50.829Z,98012.82
2018-08-27T22:05:20.334Z,98009.30
2018-08-27T22:07:49.560Z,98013.84
2018-08-27T22:10:18.898Z,98014.67
2018-08-27T22:12:48.156Z,98019.52
2018-08-27T22:15:17.355Z,98012.58
2018-08-27T22:17:46.644Z,98022.04
2018-08-27T22:20:15.880Z,98020.75
2018-08-27T22:22:45.222Z,98024.03
2018-08-27T22:25:14.490Z,98026.75
2018-08-27T22:27:43.715Z,98023.27
2018-08-27T22:30:12.922Z,98027.88
2018-08-27T22:32:42.187Z,98028.45
2018-08-27T22:35:11.487Z,98026.83
2018-08-27T22:37:40.741Z,98034.06
2018-08-27T22:40:09.962Z,98040.44
2018-08-27T22:42:39.238Z,98039.06
2018-08-27T22:45:08.498Z,98049.50
2018-08-27T22:47:37.814Z,98053.51
2018-08-27T22:50:07.290Z,98051.04
2018-08-27T22:52:36.658Z,98049.64
2018-08-27T22:55:06.005Z,98055.30
2018-08-27T22:57:35.277Z,98054.78
2018-08-27T23:00:04.550Z,98063.92
2018-08-27T23:02:38.936Z,98057.47
2018-08-27T23:05:12.095Z,98058.79
2018-08-27T23:07:42.238Z,98060.66
2018-08-27T23:10:11.574Z,98057.14
2018-08-27T23:12:41.144Z,98061.20
2018-08-27T23:15:10.346Z,98059.63
2018-08-27T23:17:39.572Z,98060.74
2018-08-27T23:20:08.846Z,98066.41
2018-08-27T23:22:38.135Z,98067.24
2018-08-27T23:25:07.369Z,98070.75
2018-08-27T23:27:36.750Z,98070.22
2018-08-27T23:30:05.991Z,98072.91
2018-08-27T23:32:35.269Z,98071.56
2018-08-27T23:35:04.542Z,98072.61
2018-08-27T23:37:33.817Z,98077.45
2018-08-27T23:40:03.084Z,98077.74
2018-08-27T23:42:32.337Z,98083.62
2018-08-27T23:45:01.587Z,98088.22
2018-08-27T23:47:31.282Z,98086.59
2018-08-27T23:50:00.575Z,98083.14
2018-08-27T23:52:30.092Z,98083.95
2018-08-27T23:54:59.266Z,98083.19
2018-08-27T23:57:28.595Z,98081.56
2018-08-27T23:59:57.885Z,98084.27
